sensor_id;sensor_type;location;lat;lon;timestamp;P1;durP1;ratioP1;P2;durP2;ratioP2
39654;SDS011;25336;59.944;11.010;2023-07-13T00:01:25;9.13;;;3.75;;
39654;SDS011;25336;59.944;11.010;2023-07-13T00:03:51;8.05;;;3.78;;
39654;SDS011;25336;59.944;11.010;2023-07-13T00:06:17;8.00;;;4.05;;
39654;SDS011;25336;59.944;11.010;2023-07-13T00:08:44;8.13;;;3.72;;
39654;SDS011;25336;59.944;11.010;2023-07-13T00:11:10;8.10;;;4.18;;
39654;SDS011;25336;59.944;11.010;2023-07-13T00:13:36;8.80;;;4.30;;
39654;SDS011;25336;59.944;11.010;2023-07-13T00:16:04;7.75;;;4.55;;
39654;SDS011;25336;59.944;11.010;2023-07-13T00:18:30;7.05;;;3.92;;
39654;SDS011;25336;59.944;11.010;2023-07-13T00:20:56;7.40;;;3.83;;
39654;SDS011;25336;59.944;11.010;2023-07-13T00:23:30;8.40;;;3.67;;
39654;SDS011;25336;59.944;11.010;2023-07-13T00:26:02;7.80;;;3.75;;
39654;SDS011;25336;59.944;11.010;2023-07-13T00:28:29;6.10;;;3.50;;
39654;SDS011;25336;59.944;11.010;2023-07-13T00:30:55;8.35;;;3.35;;
39654;SDS011;25336;59.944;11.010;2023-07-13T00:33:20;7.07;;;4.00;;
39654;SDS011;25336;59.944;11.010;2023-07-13T00:35:48;5.10;;;3.45;;
39654;SDS011;25336;59.944;11.010;2023-07-13T00:38:14;6.78;;;3.72;;
39654;SDS011;25336;59.944;11.010;2023-07-13T00:40:40;7.53;;;4.00;;
39654;SDS011;25336;59.944;11.010;2023-07-13T00:43:10;5.85;;;3.20;;
39654;SDS011;25336;59.944;11.010;2023-07-13T00:48:13;11.55;;;4.90;;
39654;SDS011;25336;59.944;11.010;2023-07-13T00:50:42;7.68;;;3.30;;
39654;SDS011;25336;59.944;11.010;2023-07-13T00:53:10;4.47;;;3.10;;
39654;SDS011;25336;59.944;11.010;2023-07-13T00:55:36;10.65;;;4.03;;
39654;SDS011;25336;59.944;11.010;2023-07-13T00:58:03;11.27;;;3.85;;
39654;SDS011;25336;59.944;11.010;2023-07-13T01:00:31;9.75;;;3.83;;
39654;SDS011;25336;59.944;11.010;2023-07-13T01:03:01;7.55;;;4.00;;
39654;SDS011;25336;59.944;11.010;2023-07-13T01:05:29;6.47;;;2.95;;
39654;SDS011;25336;59.944;11.010;2023-07-13T01:07:57;9.15;;;4.32;;
39654;SDS011;25336;59.944;11.010;2023-07-13T01:10:23;8.90;;;3.70;;
39654;SDS011;25336;59.944;11.010;2023-07-13T01:12:50;7.53;;;4.13;;
39654;SDS011;25336;59.944;11.010;2023-07-13T01:20:56;9.55;;;3.65;;
39654;SDS011;25336;59.944;11.010;2023-07-13T01:23:24;13.77;;;4.78;;
39654;SDS011;25336;59.944;11.010;2023-07-13T01:25:51;5.95;;;3.38;;
39654;SDS011;25336;59.944;11.010;2023-07-13T01:28:17;4.25;;;3.35;;
39654;SDS011;25336;59.944;11.010;2023-07-13T01:30:44;5.22;;;3.35;;
39654;SDS011;25336;59.944;11.010;2023-07-13T01:33:12;8.23;;;3.58;;
39654;SDS011;25336;59.944;11.010;2023-07-13T01:35:39;6.72;;;3.53;;
39654;SDS011;25336;59.944;11.010;2023-07-13T01:38:05;7.38;;;3.63;;
39654;SDS011;25336;59.944;11.010;2023-07-13T01:40:31;7.50;;;3.63;;
39654;SDS011;25336;59.944;11.010;2023-07-13T01:42:58;6.18;;;3.05;;
39654;SDS011;25336;59.944;11.010;2023-07-13T01:45:23;10.35;;;3.72;;
39654;SDS011;25336;59.944;11.010;2023-07-13T01:47:49;6.80;;;3.45;;
39654;SDS011;25336;59.944;11.010;2023-07-13T01:50:15;5.97;;;4.03;;
39654;SDS011;25336;59.944;11.010;2023-07-13T01:52:41;9.30;;;3.53;;
39654;SDS011;25336;59.944;11.010;2023-07-13T01:55:07;9.88;;;4.07;;
39654;SDS011;25336;59.944;11.010;2023-07-13T01:57:32;9.52;;;4.40;;
39654;SDS011;25336;59.944;11.010;2023-07-13T01:59:58;7.18;;;3.65;;
39654;SDS011;25336;59.944;11.010;2023-07-13T02:02:24;6.65;;;3.70;;
39654;SDS011;25336;59.944;11.010;2023-07-13T02:04:50;7.05;;;4.20;;
39654;SDS011;25336;59.944;11.010;2023-07-13T02:07:15;7.78;;;4.18;;
39654;SDS011;25336;59.944;11.010;2023-07-13T02:09:41;7.00;;;5.20;;
39654;SDS011;25336;59.944;11.010;2023-07-13T02:12:07;8.43;;;4.65;;
39654;SDS011;25336;59.944;11.010;2023-07-13T02:14:33;10.57;;;4.80;;
39654;SDS011;25336;59.944;11.010;2023-07-13T02:16:59;7.63;;;4.00;;
39654;SDS011;25336;59.944;11.010;2023-07-13T02:19:24;5.68;;;4.45;;
39654;SDS011;25336;59.944;11.010;2023-07-13T02:21:50;10.73;;;4.63;;
39654;SDS011;25336;59.944;11.010;2023-07-13T02:24:16;6.30;;;4.57;;
39654;SDS011;25336;59.944;11.010;2023-07-13T02:26:44;8.95;;;4.68;;
39654;SDS011;25336;59.944;11.010;2023-07-13T02:29:10;7.55;;;4.18;;
39654;SDS011;25336;59.944;11.010;2023-07-13T02:31:35;6.75;;;4.95;;
39654;SDS011;25336;59.944;11.010;2023-07-13T02:34:01;9.27;;;4.95;;
39654;SDS011;25336;59.944;11.010;2023-07-13T02:36:29;7.40;;;4.43;;
39654;SDS011;25336;59.944;11.010;2023-07-13T02:38:55;5.88;;;4.47;;
39654;SDS011;25336;59.944;11.010;2023-07-13T02:41:22;8.48;;;4.55;;
39654;SDS011;25336;59.944;11.010;2023-07-13T02:43:51;6.70;;;4.65;;
39654;SDS011;25336;59.944;11.010;2023-07-13T02:46:16;9.50;;;4.55;;
39654;SDS011;25336;59.944;11.010;2023-07-13T02:48:44;5.80;;;4.30;;
39654;SDS011;25336;59.944;11.010;2023-07-13T02:51:10;6.55;;;4.47;;
39654;SDS011;25336;59.944;11.010;2023-07-13T02:53:36;7.13;;;4.18;;
39654;SDS011;25336;59.944;11.010;2023-07-13T02:56:02;6.03;;;4.28;;
39654;SDS011;25336;59.944;11.010;2023-07-13T02:58:29;6.75;;;4.60;;
39654;SDS011;25336;59.944;11.010;2023-07-13T03:00:55;5.68;;;4.15;;
39654;SDS011;25336;59.944;11.010;2023-07-13T03:03:21;7.35;;;4.35;;
39654;SDS011;25336;59.944;11.010;2023-07-13T03:05:46;6.80;;;4.45;;
39654;SDS011;25336;59.944;11.010;2023-07-13T03:08:15;8.73;;;4.70;;
39654;SDS011;25336;59.944;11.010;2023-07-13T03:10:41;8.07;;;4.70;;
39654;SDS011;25336;59.944;11.010;2023-07-13T03:13:06;5.93;;;3.28;;
39654;SDS011;25336;59.944;11.010;2023-07-13T03:15:32;6.18;;;4.65;;
39654;SDS011;25336;59.944;11.010;2023-07-13T03:17:58;5.40;;;4.30;;
39654;SDS011;25336;59.944;11.010;2023-07-13T03:20:23;5.63;;;3.78;;
39654;SDS011;25336;59.944;11.010;2023-07-13T03:22:49;5.53;;;4.28;;
39654;SDS011;25336;59.944;11.010;2023-07-13T03:25:15;9.07;;;4.43;;
39654;SDS011;25336;59.944;11.010;2023-07-13T03:27:40;7.05;;;4.35;;
39654;SDS011;25336;59.944;11.010;2023-07-13T03:30:06;4.53;;;4.00;;
39654;SDS011;25336;59.944;11.010;2023-07-13T03:32:32;7.18;;;3.88;;
39654;SDS011;25336;59.944;11.010;2023-07-13T03:34:58;9.23;;;4.38;;
39654;SDS011;25336;59.944;11.010;2023-07-13T03:37:24;6.47;;;4.07;;
39654;SDS011;25336;59.944;11.010;2023-07-13T03:39:50;5.50;;;3.65;;
39654;SDS011;25336;59.944;11.010;2023-07-13T03:42:15;7.00;;;3.90;;
39654;SDS011;25336;59.944;11.010;2023-07-13T03:44:41;5.57;;;3.95;;
39654;SDS011;25336;59.944;11.010;2023-07-13T03:47:11;6.65;;;3.97;;
39654;SDS011;25336;59.944;11.010;2023-07-13T03:49:37;6.13;;;4.38;;
39654;SDS011;25336;59.944;11.010;2023-07-13T03:52:03;4.80;;;4.30;;
39654;SDS011;25336;59.944;11.010;2023-07-13T03:54:29;6.50;;;4.25;;
39654;SDS011;25336;59.944;11.010;2023-07-13T03:56:55;5.43;;;4.38;;
39654;SDS011;25336;59.944;11.010;2023-07-13T03:59:20;6.32;;;4.03;;
39654;SDS011;25336;59.944;11.010;2023-07-13T04:01:46;9.40;;;4.90;;
39654;SDS011;25336;59.944;11.010;2023-07-13T04:04:12;8.40;;;4.05;;
39654;SDS011;25336;59.944;11.010;2023-07-13T04:06:38;8.18;;;3.42;;
39654;SDS011;25336;59.944;11.010;2023-07-13T04:09:03;7.05;;;3.70;;
39654;SDS011;25336;59.944;11.010;2023-07-13T04:11:33;5.95;;;3.70;;
39654;SDS011;25336;59.944;11.010;2023-07-13T04:14:01;8.57;;;4.10;;
39654;SDS011;25336;59.944;11.010;2023-07-13T04:16:27;9.40;;;3.88;;
39654;SDS011;25336;59.944;11.010;2023-07-13T04:18:54;7.03;;;3.70;;
39654;SDS011;25336;59.944;11.010;2023-07-13T04:21:24;4.30;;;3.50;;
39654;SDS011;25336;59.944;11.010;2023-07-13T04:23:50;7.13;;;3.47;;
39654;SDS011;25336;59.944;11.010;2023-07-13T04:26:16;4.43;;;3.60;;
39654;SDS011;25336;59.944;11.010;2023-07-13T04:28:42;5.93;;;3.28;;
39654;SDS011;25336;59.944;11.010;2023-07-13T04:31:08;5.47;;;3.40;;
39654;SDS011;25336;59.944;11.010;2023-07-13T04:33:33;6.38;;;3.25;;
39654;SDS011;25336;59.944;11.010;2023-07-13T04:35:59;5.38;;;2.95;;
39654;SDS011;25336;59.944;11.010;2023-07-13T04:38:27;6.00;;;3.28;;
39654;SDS011;25336;59.944;11.010;2023-07-13T04:40:57;4.38;;;3.03;;
39654;SDS011;25336;59.944;11.010;2023-07-13T04:43:31;4.90;;;2.83;;
39654;SDS011;25336;59.944;11.010;2023-07-13T04:45:57;5.00;;;3.00;;
39654;SDS011;25336;59.944;11.010;2023-07-13T04:48:28;6.88;;;3.95;;
39654;SDS011;25336;59.944;11.010;2023-07-13T04:50:54;5.05;;;2.92;;
39654;SDS011;25336;59.944;11.010;2023-07-13T04:53:21;3.28;;;2.95;;
39654;SDS011;25336;59.944;11.010;2023-07-13T04:55:46;4.95;;;2.75;;
39654;SDS011;25336;59.944;11.010;2023-07-13T04:58:12;3.92;;;3.03;;
39654;SDS011;25336;59.944;11.010;2023-07-13T05:00:38;6.10;;;3.05;;
39654;SDS011;25336;59.944;11.010;2023-07-13T05:03:05;5.53;;;3.00;;
39654;SDS011;25336;59.944;11.010;2023-07-13T05:05:31;4.68;;;2.88;;
39654;SDS011;25336;59.944;11.010;2023-07-13T05:07:57;6.15;;;3.15;;
39654;SDS011;25336;59.944;11.010;2023-07-13T05:10:22;4.55;;;2.47;;
39654;SDS011;25336;59.944;11.010;2023-07-13T05:12:48;3.17;;;2.72;;
39654;SDS011;25336;59.944;11.010;2023-07-13T05:15:14;5.65;;;3.13;;
39654;SDS011;25336;59.944;11.010;2023-07-13T05:17:41;6.07;;;2.45;;
39654;SDS011;25336;59.944;11.010;2023-07-13T05:20:07;3.63;;;2.70;;
39654;SDS011;25336;59.944;11.010;2023-07-13T05:22:34;5.25;;;2.45;;
39654;SDS011;25336;59.944;11.010;2023-07-13T05:25:00;3.88;;;2.60;;
39654;SDS011;25336;59.944;11.010;2023-07-13T05:27:27;6.10;;;2.45;;
39654;SDS011;25336;59.944;11.010;2023-07-13T05:29:52;2.55;;;2.00;;
39654;SDS011;25336;59.944;11.010;2023-07-13T05:32:18;4.30;;;2.17;;
39654;SDS011;25336;59.944;11.010;2023-07-13T05:34:44;3.05;;;2.10;;
39654;SDS011;25336;59.944;11.010;2023-07-13T05:37:10;7.32;;;2.17;;
39654;SDS011;25336;59.944;11.010;2023-07-13T05:39:35;7.03;;;2.47;;
39654;SDS011;25336;59.944;11.010;2023-07-13T05:42:01;2.33;;;2.00;;
39654;SDS011;25336;59.944;11.010;2023-07-13T05:44:27;3.05;;;2.20;;
39654;SDS011;25336;59.944;11.010;2023-07-13T05:46:53;4.07;;;1.88;;
39654;SDS011;25336;59.944;11.010;2023-07-13T05:49:21;2.65;;;2.40;;
39654;SDS011;25336;59.944;11.010;2023-07-13T05:51:46;3.28;;;2.10;;
39654;SDS011;25336;59.944;11.010;2023-07-13T05:54:12;3.92;;;2.30;;
39654;SDS011;25336;59.944;11.010;2023-07-13T05:56:38;3.28;;;2.50;;
39654;SDS011;25336;59.944;11.010;2023-07-13T05:59:03;3.15;;;2.10;;
39654;SDS011;25336;59.944;11.010;2023-07-13T06:01:29;2.22;;;1.92;;
39654;SDS011;25336;59.944;11.010;2023-07-13T06:03:56;2.22;;;1.90;;
39654;SDS011;25336;59.944;11.010;2023-07-13T06:06:22;4.00;;;2.08;;
39654;SDS011;25336;59.944;11.010;2023-07-13T06:08:47;2.10;;;1.65;;
39654;SDS011;25336;59.944;11.010;2023-07-13T06:11:14;3.45;;;2.20;;
39654;SDS011;25336;59.944;11.010;2023-07-13T06:13:42;4.82;;;2.70;;
39654;SDS011;25336;59.944;11.010;2023-07-13T06:16:08;3.25;;;2.00;;
39654;SDS011;25336;59.944;11.010;2023-07-13T06:18:35;4.53;;;2.47;;
39654;SDS011;25336;59.944;11.010;2023-07-13T06:21:09;3.80;;;2.30;;
39654;SDS011;25336;59.944;11.010;2023-07-13T06:23:37;2.88;;;1.75;;
39654;SDS011;25336;59.944;11.010;2023-07-13T06:26:03;3.25;;;2.00;;
39654;SDS011;25336;59.944;11.010;2023-07-13T06:28:30;3.17;;;2.20;;
39654;SDS011;25336;59.944;11.010;2023-07-13T06:30:56;2.28;;;2.08;;
39654;SDS011;25336;59.944;11.010;2023-07-13T06:33:25;3.85;;;2.47;;
39654;SDS011;25336;59.944;11.010;2023-07-13T06:35:52;3.88;;;2.10;;
39654;SDS011;25336;59.944;11.010;2023-07-13T06:38:19;2.20;;;2.00;;
39654;SDS011;25336;59.944;11.010;2023-07-13T06:40:45;2.58;;;1.95;;
39654;SDS011;25336;59.944;11.010;2023-07-13T06:43:11;6.47;;;3.03;;
39654;SDS011;25336;59.944;11.010;2023-07-13T06:45:41;7.40;;;3.25;;
39654;SDS011;25336;59.944;11.010;2023-07-13T06:48:10;2.95;;;2.17;;
39654;SDS011;25336;59.944;11.010;2023-07-13T06:50:36;3.35;;;1.92;;
39654;SDS011;25336;59.944;11.010;2023-07-13T06:53:02;2.33;;;1.52;;
39654;SDS011;25336;59.944;11.010;2023-07-13T06:55:28;2.45;;;1.60;;
39654;SDS011;25336;59.944;11.010;2023-07-13T06:57:53;4.43;;;1.60;;
39654;SDS011;25336;59.944;11.010;2023-07-13T07:00:19;3.90;;;2.00;;
39654;SDS011;25336;59.944;11.010;2023-07-13T07:02:46;2.40;;;1.80;;
39654;SDS011;25336;59.944;11.010;2023-07-13T07:05:11;4.10;;;1.50;;
39654;SDS011;25336;59.944;11.010;2023-07-13T07:07:37;3.58;;;2.00;;
39654;SDS011;25336;59.944;11.010;2023-07-13T07:10:02;3.72;;;1.55;;
39654;SDS011;25336;59.944;11.010;2023-07-13T07:12:28;3.70;;;2.30;;
39654;SDS011;25336;59.944;11.010;2023-07-13T07:14:54;6.43;;;1.50;;
39654;SDS011;25336;59.944;11.010;2023-07-13T07:17:20;3.20;;;1.40;;
39654;SDS011;25336;59.944;11.010;2023-07-13T07:19:46;2.83;;;1.60;;
39654;SDS011;25336;59.944;11.010;2023-07-13T07:22:11;1.45;;;1.17;;
39654;SDS011;25336;59.944;11.010;2023-07-13T07:24:37;2.47;;;1.33;;
39654;SDS011;25336;59.944;11.010;2023-07-13T07:27:03;2.88;;;1.27;;
39654;SDS011;25336;59.944;11.010;2023-07-13T07:29:29;4.00;;;1.60;;
39654;SDS011;25336;59.944;11.010;2023-07-13T07:31:55;1.88;;;1.33;;
39654;SDS011;25336;59.944;11.010;2023-07-13T07:34:20;2.20;;;1.20;;
39654;SDS011;25336;59.944;11.010;2023-07-13T07:36:46;1.98;;;1.27;;
39654;SDS011;25336;59.944;11.010;2023-07-13T07:39:12;2.50;;;1.15;;
39654;SDS011;25336;59.944;11.010;2023-07-13T07:41:38;13.50;;;1.90;;
39654;SDS011;25336;59.944;11.010;2023-07-13T07:44:03;4.35;;;0.98;;
39654;SDS011;25336;59.944;11.010;2023-07-13T07:46:29;2.63;;;1.23;;
39654;SDS011;25336;59.944;11.010;2023-07-13T07:48:55;2.47;;;1.02;;
39654;SDS011;25336;59.944;11.010;2023-07-13T07:51:22;2.35;;;1.25;;
39654;SDS011;25336;59.944;11.010;2023-07-13T07:53:47;1.85;;;1.20;;
39654;SDS011;25336;59.944;11.010;2023-07-13T07:56:14;4.95;;;1.30;;
39654;SDS011;25336;59.944;11.010;2023-07-13T07:58:41;5.35;;;1.45;;
39654;SDS011;25336;59.944;11.010;2023-07-13T08:01:07;1.45;;;1.10;;
39654;SDS011;25336;59.944;11.010;2023-07-13T08:03:33;2.83;;;1.30;;
39654;SDS011;25336;59.944;11.010;2023-07-13T08:05:59;1.33;;;1.23;;
39654;SDS011;25336;59.944;11.010;2023-07-13T08:08:25;1.65;;;0.93;;
39654;SDS011;25336;59.944;11.010;2023-07-13T08:10:50;3.00;;;1.20;;
39654;SDS011;25336;59.944;11.010;2023-07-13T08:13:16;2.33;;;1.25;;
39654;SDS011;25336;59.944;11.010;2023-07-13T08:15:42;3.00;;;1.10;;
39654;SDS011;25336;59.944;11.010;2023-07-13T08:18:08;1.33;;;1.08;;
39654;SDS011;25336;59.944;11.010;2023-07-13T08:20:36;3.05;;;1.20;;
39654;SDS011;25336;59.944;11.010;2023-07-13T08:23:05;3.65;;;0.93;;
39654;SDS011;25336;59.944;11.010;2023-07-13T08:25:32;1.95;;;1.00;;
39654;SDS011;25336;59.944;11.010;2023-07-13T08:27:58;1.13;;;1.02;;
39654;SDS011;25336;59.944;11.010;2023-07-13T08:30:23;1.45;;;0.73;;
39654;SDS011;25336;59.944;11.010;2023-07-13T08:32:49;2.72;;;0.80;;
39654;SDS011;25336;59.944;11.010;2023-07-13T08:35:15;3.72;;;0.90;;
39654;SDS011;25336;59.944;11.010;2023-07-13T08:37:41;2.25;;;0.85;;
39654;SDS011;25336;59.944;11.010;2023-07-13T08:40:10;0.90;;;0.80;;
39654;SDS011;25336;59.944;11.010;2023-07-13T08:42:56;3.75;;;0.93;;
39654;SDS011;25336;59.944;11.010;2023-07-13T08:53:31;3.78;;;1.00;;
39654;SDS011;25336;59.944;11.010;2023-07-13T08:56:05;1.52;;;1.05;;
39654;SDS011;25336;59.944;11.010;2023-07-13T08:58:43;2.75;;;0.90;;
39654;SDS011;25336;59.944;11.010;2023-07-13T09:01:20;3.97;;;0.90;;
39654;SDS011;25336;59.944;11.010;2023-07-13T09:14:48;4.03;;;1.10;;
39654;SDS011;25336;59.944;11.010;2023-07-13T09:17:25;1.05;;;0.80;;
39654;SDS011;25336;59.944;11.010;2023-07-13T09:20:00;1.77;;;1.00;;
39654;SDS011;25336;59.944;11.010;2023-07-13T09:22:34;2.97;;;0.88;;
39654;SDS011;25336;59.944;11.010;2023-07-13T09:25:12;3.25;;;0.95;;
39654;SDS011;25336;59.944;11.010;2023-07-13T09:27:57;2.85;;;1.02;;
39654;SDS011;25336;59.944;11.010;2023-07-13T09:33:31;1.30;;;0.82;;
39654;SDS011;25336;59.944;11.010;2023-07-13T09:35:57;4.45;;;0.90;;
39654;SDS011;25336;59.944;11.010;2023-07-13T09:38:24;1.75;;;0.80;;
39654;SDS011;25336;59.944;11.010;2023-07-13T09:44:07;3.63;;;0.98;;
39654;SDS011;25336;59.944;11.010;2023-07-13T09:46:44;1.42;;;1.10;;
39654;SDS011;25336;59.944;11.010;2023-07-13T09:49:11;4.30;;;0.93;;
39654;SDS011;25336;59.944;11.010;2023-07-13T09:51:38;2.42;;;1.05;;
39654;SDS011;25336;59.944;11.010;2023-07-13T09:54:05;2.08;;;0.80;;
39654;SDS011;25336;59.944;11.010;2023-07-13T09:56:42;2.38;;;0.95;;
39654;SDS011;25336;59.944;11.010;2023-07-13T09:59:18;1.58;;;0.88;;
39654;SDS011;25336;59.944;11.010;2023-07-13T10:01:45;1.38;;;1.02;;
39654;SDS011;25336;59.944;11.010;2023-07-13T10:04:13;1.25;;;0.73;;
39654;SDS011;25336;59.944;11.010;2023-07-13T10:06:43;3.25;;;0.80;;
39654;SDS011;25336;59.944;11.010;2023-07-13T10:09:10;2.53;;;1.05;;
39654;SDS011;25336;59.944;11.010;2023-07-13T10:11:40;5.05;;;0.95;;
39654;SDS011;25336;59.944;11.010;2023-07-13T10:14:16;1.13;;;0.73;;
39654;SDS011;25336;59.944;11.010;2023-07-13T10:16:45;1.65;;;0.77;;
39654;SDS011;25336;59.944;11.010;2023-07-13T10:19:16;0.75;;;0.60;;
39654;SDS011;25336;59.944;11.010;2023-07-13T10:21:53;1.10;;;0.80;;
39654;SDS011;25336;59.944;11.010;2023-07-13T10:24:25;1.55;;;0.80;;
39654;SDS011;25336;59.944;11.010;2023-07-13T10:29:35;1.88;;;1.08;;
39654;SDS011;25336;59.944;11.010;2023-07-13T10:32:07;3.35;;;0.95;;
39654;SDS011;25336;59.944;11.010;2023-07-13T10:34:36;2.28;;;1.05;;
39654;SDS011;25336;59.944;11.010;2023-07-13T10:37:02;2.33;;;1.13;;
39654;SDS011;25336;59.944;11.010;2023-07-13T10:39:30;0.80;;;0.70;;
39654;SDS011;25336;59.944;11.010;2023-07-13T10:41:59;2.58;;;0.73;;
39654;SDS011;25336;59.944;11.010;2023-07-13T10:44:29;0.70;;;0.70;;
39654;SDS011;25336;59.944;11.010;2023-07-13T10:47:00;13.05;;;2.67;;
39654;SDS011;25336;59.944;11.010;2023-07-13T10:49:32;0.45;;;0.45;;
39654;SDS011;25336;59.944;11.010;2023-07-13T10:52:00;0.90;;;0.77;;
39654;SDS011;25336;59.944;11.010;2023-07-13T10:59:41;1.20;;;0.70;;
39654;SDS011;25336;59.944;11.010;2023-07-13T11:02:12;3.58;;;0.60;;
39654;SDS011;25336;59.944;11.010;2023-07-13T11:04:48;0.90;;;0.73;;
39654;SDS011;25336;59.944;11.010;2023-07-13T11:07:23;1.63;;;0.60;;
39654;SDS011;25336;59.944;11.010;2023-07-13T11:09:54;2.10;;;0.82;;
39654;SDS011;25336;59.944;11.010;2023-07-13T11:20:08;3.25;;;0.85;;
39654;SDS011;25336;59.944;11.010;2023-07-13T11:22:51;2.00;;;0.80;;
39654;SDS011;25336;59.944;11.010;2023-07-13T11:25:32;1.92;;;0.80;;
39654;SDS011;25336;59.944;11.010;2023-07-13T11:33:25;6.05;;;0.73;;
39654;SDS011;25336;59.944;11.010;2023-07-13T11:36:16;1.20;;;0.70;;
39654;SDS011;25336;59.944;11.010;2023-07-13T11:41:32;0.80;;;0.60;;
39654;SDS011;25336;59.944;11.010;2023-07-13T11:44:25;2.95;;;0.50;;
39654;SDS011;25336;59.944;11.010;2023-07-13T11:46:51;1.30;;;0.82;;
39654;SDS011;25336;59.944;11.010;2023-07-13T11:49:20;1.17;;;0.90;;
39654;SDS011;25336;59.944;11.010;2023-07-13T11:51:47;3.00;;;1.02;;
39654;SDS011;25336;59.944;11.010;2023-07-13T11:59:48;1.63;;;0.50;;
39654;SDS011;25336;59.944;11.010;2023-07-13T12:02:25;2.83;;;0.80;;
39654;SDS011;25336;59.944;11.010;2023-07-13T12:04:53;0.80;;;0.70;;
39654;SDS011;25336;59.944;11.010;2023-07-13T12:07:19;1.13;;;0.80;;
39654;SDS011;25336;59.944;11.010;2023-07-13T12:09:45;1.92;;;0.77;;
39654;SDS011;25336;59.944;11.010;2023-07-13T12:12:15;2.88;;;0.60;;
39654;SDS011;25336;59.944;11.010;2023-07-13T12:14:43;1.40;;;1.00;;
39654;SDS011;25336;59.944;11.010;2023-07-13T12:17:11;1.17;;;0.70;;
39654;SDS011;25336;59.944;11.010;2023-07-13T12:19:43;1.17;;;0.70;;
39654;SDS011;25336;59.944;11.010;2023-07-13T12:22:11;1.33;;;0.85;;
39654;SDS011;25336;59.944;11.010;2023-07-13T12:24:40;1.13;;;0.60;;
39654;SDS011;25336;59.944;11.010;2023-07-13T12:27:13;0.80;;;0.80;;
39654;SDS011;25336;59.944;11.010;2023-07-13T12:29:49;1.92;;;1.05;;
39654;SDS011;25336;59.944;11.010;2023-07-13T12:32:23;1.80;;;0.88;;
39654;SDS011;25336;59.944;11.010;2023-07-13T12:34:56;1.35;;;0.60;;
39654;SDS011;25336;59.944;11.010;2023-07-13T12:37:42;1.00;;;0.65;;
39654;SDS011;25336;59.944;11.010;2023-07-13T12:40:13;1.92;;;0.98;;
39654;SDS011;25336;59.944;11.010;2023-07-13T12:42:47;7.03;;;0.85;;
39654;SDS011;25336;59.944;11.010;2023-07-13T12:45:18;2.08;;;1.10;;
39654;SDS011;25336;59.944;11.010;2023-07-13T12:47:58;5.57;;;1.33;;
39654;SDS011;25336;59.944;11.010;2023-07-13T12:50:41;2.08;;;0.80;;
39654;SDS011;25336;59.944;11.010;2023-07-13T12:53:12;3.20;;;0.70;;
39654;SDS011;25336;59.944;11.010;2023-07-13T12:55:41;3.05;;;0.70;;
39654;SDS011;25336;59.944;11.010;2023-07-13T12:58:22;4.07;;;1.00;;
39654;SDS011;25336;59.944;11.010;2023-07-13T13:00:53;4.55;;;1.30;;
39654;SDS011;25336;59.944;11.010;2023-07-13T13:03:22;6.63;;;0.80;;
39654;SDS011;25336;59.944;11.010;2023-07-13T13:06:06;1.70;;;0.93;;
39654;SDS011;25336;59.944;11.010;2023-07-13T13:08:46;2.35;;;0.90;;
39654;SDS011;25336;59.944;11.010;2023-07-13T13:11:16;1.85;;;0.82;;
39654;SDS011;25336;59.944;11.010;2023-07-13T13:13:43;2.45;;;1.15;;
39654;SDS011;25336;59.944;11.010;2023-07-13T13:16:12;1.70;;;0.77;;
39654;SDS011;25336;59.944;11.010;2023-07-13T13:18:42;0.98;;;0.75;;
39654;SDS011;25336;59.944;11.010;2023-07-13T13:21:09;1.92;;;0.82;;
39654;SDS011;25336;59.944;11.010;2023-07-13T13:23:36;2.08;;;0.85;;
39654;SDS011;25336;59.944;11.010;2023-07-13T13:26:01;1.58;;;0.95;;
39654;SDS011;25336;59.944;11.010;2023-07-13T13:28:28;2.60;;;0.88;;
39654;SDS011;25336;59.944;11.010;2023-07-13T13:30:54;2.10;;;1.00;;
39654;SDS011;25336;59.944;11.010;2023-07-13T13:33:20;4.00;;;1.05;;
39654;SDS011;25336;59.944;11.010;2023-07-13T13:35:47;1.63;;;0.77;;
39654;SDS011;25336;59.944;11.010;2023-07-13T13:38:13;2.55;;;0.90;;
39654;SDS011;25336;59.944;11.010;2023-07-13T13:40:41;2.92;;;1.00;;
39654;SDS011;25336;59.944;11.010;2023-07-13T13:43:14;1.75;;;1.00;;
39654;SDS011;25336;59.944;11.010;2023-07-13T13:45:42;4.07;;;1.05;;
39654;SDS011;25336;59.944;11.010;2023-07-13T13:48:13;3.85;;;1.25;;
39654;SDS011;25336;59.944;11.010;2023-07-13T13:53:25;5.00;;;0.80;;
39654;SDS011;25336;59.944;11.010;2023-07-13T13:55:51;2.95;;;1.15;;
39654;SDS011;25336;59.944;11.010;2023-07-13T13:58:18;9.63;;;1.23;;
39654;SDS011;25336;59.944;11.010;2023-07-13T14:00:47;2.45;;;1.05;;
39654;SDS011;25336;59.944;11.010;2023-07-13T14:03:18;6.03;;;1.15;;
39654;SDS011;25336;59.944;11.010;2023-07-13T14:05:45;3.38;;;0.95;;
39654;SDS011;25336;59.944;11.010;2023-07-13T14:08:15;2.63;;;1.10;;
39654;SDS011;25336;59.944;11.010;2023-07-13T14:10:48;6.85;;;1.80;;
39654;SDS011;25336;59.944;11.010;2023-07-13T14:13:23;2.53;;;1.15;;
39654;SDS011;25336;59.944;11.010;2023-07-13T14:15:52;3.08;;;1.30;;
39654;SDS011;25336;59.944;11.010;2023-07-13T14:18:19;1.30;;;1.00;;
39654;SDS011;25336;59.944;11.010;2023-07-13T14:20:45;3.45;;;1.35;;
39654;SDS011;25336;59.944;11.010;2023-07-13T14:23:12;2.28;;;1.42;;
39654;SDS011;25336;59.944;11.010;2023-07-13T14:25:42;2.72;;;1.33;;
39654;SDS011;25336;59.944;11.010;2023-07-13T14:28:26;4.60;;;1.20;;
39654;SDS011;25336;59.944;11.010;2023-07-13T14:30:53;5.28;;;1.60;;
39654;SDS011;25336;59.944;11.010;2023-07-13T14:33:19;5.25;;;1.25;;
39654;SDS011;25336;59.944;11.010;2023-07-13T14:35:46;7.03;;;1.42;;
39654;SDS011;25336;59.944;11.010;2023-07-13T14:38:13;3.85;;;1.35;;
39654;SDS011;25336;59.944;11.010;2023-07-13T14:40:42;2.92;;;0.77;;
39654;SDS011;25336;59.944;11.010;2023-07-13T14:43:11;3.33;;;1.17;;
39654;SDS011;25336;59.944;11.010;2023-07-13T14:45:39;2.88;;;0.90;;
39654;SDS011;25336;59.944;11.010;2023-07-13T14:48:17;5.63;;;1.58;;
39654;SDS011;25336;59.944;11.010;2023-07-13T14:50:46;1.20;;;1.00;;
39654;SDS011;25336;59.944;11.010;2023-07-13T14:53:12;1.55;;;1.00;;
39654;SDS011;25336;59.944;11.010;2023-07-13T14:55:38;3.60;;;1.00;;
39654;SDS011;25336;59.944;11.010;2023-07-13T14:58:04;2.00;;;1.00;;
39654;SDS011;25336;59.944;11.010;2023-07-13T15:00:30;3.08;;;1.30;;
39654;SDS011;25336;59.944;11.010;2023-07-13T15:02:57;2.03;;;1.10;;
39654;SDS011;25336;59.944;11.010;2023-07-13T15:05:26;2.78;;;1.35;;
39654;SDS011;25336;59.944;11.010;2023-07-13T15:07:56;1.33;;;0.80;;
39654;SDS011;25336;59.944;11.010;2023-07-13T15:10:27;4.40;;;1.35;;
39654;SDS011;25336;59.944;11.010;2023-07-13T15:12:58;1.75;;;1.10;;
39654;SDS011;25336;59.944;11.010;2023-07-13T15:15:27;1.45;;;1.00;;
39654;SDS011;25336;59.944;11.010;2023-07-13T15:17:54;3.53;;;1.40;;
39654;SDS011;25336;59.944;11.010;2023-07-13T15:22:57;4.85;;;1.48;;
39654;SDS011;25336;59.944;11.010;2023-07-13T15:25:24;5.25;;;1.55;;
39654;SDS011;25336;59.944;11.010;2023-07-13T15:27:51;2.78;;;1.40;;
39654;SDS011;25336;59.944;11.010;2023-07-13T15:30:18;4.10;;;1.65;;
39654;SDS011;25336;59.944;11.010;2023-07-13T15:32:45;4.78;;;1.70;;
39654;SDS011;25336;59.944;11.010;2023-07-13T15:35:15;3.80;;;1.50;;
39654;SDS011;25336;59.944;11.010;2023-07-13T15:37:46;4.68;;;1.35;;
39654;SDS011;25336;59.944;11.010;2023-07-13T15:40:12;2.30;;;1.63;;
39654;SDS011;25336;59.944;11.010;2023-07-13T15:42:40;1.58;;;1.20;;
39654;SDS011;25336;59.944;11.010;2023-07-13T15:47:52;4.47;;;1.33;;
39654;SDS011;25336;59.944;11.010;2023-07-13T15:50:19;2.28;;;1.02;;